Kingston, Ohio
Current Conditions -  °F | °C
As of 5:14 PM on Monday 20 Oct 2014 (Local Time) from KRZT Reporting Station
Light Rain Light Rain  
Wind Chill: 55°   Ceiling: 4200
Heat Index: 55°   Visibility: 7mi
Dew Point: 46°   Wind: 0mph
Humidity: 72%   Direction: NA
Pressure: 29.88"   Gusts: NA
Location:  39.47°N, 82.91°W
Report Text: KRZT 202114Z AUTO 00000KT 7SM -RA OVC042 13/08 A2988 RMK AO2 P0001
Loading
Personal Weather Stations






























Interactive Weather Map
Tropical Storm Tracking
New forecast layout! Learn more

10-Day Weather Forecast

Advertisements
Track Severe Weather on mobile